createdAt,value
2018-02-02T00:00:34.143Z,12.7
2018-02-02T00:01:34.185Z,12.8
2018-02-02T00:02:34.159Z,12.9
2018-02-02T00:03:33.834Z,13.1
2018-02-02T00:04:34.238Z,13
2018-02-02T00:05:33.752Z,13
2018-02-02T00:06:33.792Z,12.9
2018-02-02T00:07:33.553Z,12.6
2018-02-02T00:08:33.469Z,13
2018-02-02T00:09:33.859Z,13
2018-02-02T00:10:33.472Z,13
2018-02-02T00:11:33.239Z,12.8
2018-02-02T00:12:33.157Z,12.6
2018-02-02T00:13:33.085Z,13
2018-02-02T00:14:33.165Z,12.8
2018-02-02T00:15:32.975Z,12.8
2018-02-02T00:16:32.948Z,13.1
2018-02-02T00:17:32.930Z,12.8
2018-02-02T00:18:32.704Z,13
2018-02-02T00:19:32.753Z,13
2018-02-02T00:20:32.580Z,13.1
2018-02-02T00:21:32.562Z,13.1
2018-02-02T00:22:32.427Z,12.8
2018-02-02T00:23:32.519Z,12.8
2018-02-02T00:24:32.438Z,13.1
2018-02-02T00:25:32.099Z,12.8
2018-02-02T00:26:32.307Z,13.1
2018-02-02T00:27:32.005Z,12.6
2018-02-02T00:28:32.479Z,13
2018-02-02T00:29:32.223Z,12.6
2018-02-02T00:30:31.888Z,12.4
2018-02-02T00:31:31.722Z,13.1
2018-02-02T00:32:31.603Z,12.6
2018-02-02T00:33:31.623Z,13.1
2018-02-02T00:34:31.549Z,12.9
2018-02-02T00:35:31.524Z,12.9
2018-02-02T00:36:31.443Z,12.8
2018-02-02T00:37:31.249Z,12.9
2018-02-02T00:38:31.293Z,12.5
2018-02-02T00:39:31.268Z,12.9
2018-02-02T00:40:31.121Z,12.8
2018-02-02T00:41:30.891Z,12.5
2018-02-02T00:42:31.080Z,12.6
2018-02-02T00:43:30.961Z,12.6
2018-02-02T00:44:30.873Z,12.9
2018-02-02T00:45:30.682Z,12.4
2018-02-02T00:46:30.545Z,12.7
2018-02-02T00:47:30.757Z,12.8
2018-02-02T00:48:30.297Z,13.1
2018-02-02T00:49:30.426Z,12.6
2018-02-02T00:50:30.189Z,13
2018-02-02T00:51:30.216Z,12.5
2018-02-02T00:52:30.247Z,12.9
2018-02-02T00:53:30.116Z,12.9
2018-02-02T00:54:29.827Z,13
2018-02-02T00:55:29.959Z,13
2018-02-02T00:56:29.673Z,12.7
2018-02-02T00:57:29.630Z,13.2
2018-02-02T00:58:29.632Z,13.2
2018-02-02T00:59:29.464Z,13.1
2018-02-02T01:00:29.698Z,12.4
2018-02-02T01:01:29.434Z,12.9
2018-02-02T01:02:29.349Z,12.7
2018-02-02T01:03:29.276Z,13
2018-02-02T01:04:29.135Z,13.1
2018-02-02T01:05:28.966Z,13
2018-02-02T01:06:29.330Z,13.1
2018-02-02T01:07:28.912Z,13
2018-02-02T01:08:28.937Z,13.2
2018-02-02T01:09:28.742Z,13
2018-02-02T01:10:28.782Z,12.7
2018-02-02T01:11:28.651Z,12.5
2018-02-02T01:12:28.569Z,12.7
2018-02-02T01:13:28.623Z,12.7
2018-02-02T01:14:28.625Z,12.9
2018-02-02T01:15:28.512Z,13
2018-02-02T01:16:28.149Z,12.6
2018-02-02T01:17:28.074Z,12.7
2018-02-02T01:18:28.041Z,12.9
2018-02-02T01:19:27.960Z,12.8
2018-02-02T01:20:28.001Z,13.2
2018-02-02T01:21:27.892Z,12.5
2018-02-02T01:22:27.679Z,12.4
2018-02-02T01:23:27.598Z,12.7
2018-02-02T01:24:27.633Z,13.2
2018-02-02T01:25:27.607Z,12.6
2018-02-02T01:26:27.321Z,12.7
2018-02-02T01:27:27.390Z,13.2
2018-02-02T01:28:27.320Z,13.2
2018-02-02T01:29:27.470Z,13.1
2018-02-02T01:30:27.133Z,12.7
2018-02-02T01:31:27.050Z,12.6
2018-02-02T01:32:26.999Z,12.8
2018-02-02T01:33:26.933Z,13.1
2018-02-02T01:34:26.736Z,12.8
2018-02-02T01:35:26.662Z,12.5
2018-02-02T01:36:26.745Z,13.1
2018-02-02T01:37:26.460Z,12.6
2018-02-02T01:38:26.555Z,12.4
2018-02-02T01:39:26.584Z,12.5
2018-02-02T01:40:26.272Z,13.2
2018-02-02T01:41:26.533Z,12.9
2018-02-02T01:42:26.071Z,12.5
2018-02-02T01:43:26.252Z,12.7
2018-02-02T01:44:26.065Z,13.1
2018-02-02T01:45:25.983Z,12.9
2018-02-02T01:46:26.078Z,12.9
2018-02-02T01:47:25.818Z,12.6
2018-02-02T01:48:25.696Z,13.2
2018-02-02T01:49:25.612Z,13.1
2018-02-02T01:50:25.592Z,12.9
2018-02-02T01:51:25.404Z,12.9
2018-02-02T01:52:25.442Z,12.5
2018-02-02T01:53:25.353Z,12.6
2018-02-02T01:54:25.163Z,13.1
2018-02-02T01:55:25.420Z,12.7
2018-02-02T01:56:25.019Z,12.9
2018-02-02T01:57:24.898Z,12.6
2018-02-02T01:58:25.136Z,12.7
2018-02-02T01:59:24.740Z,13.2
2018-02-02T02:00:24.752Z,12.6
2018-02-02T02:01:24.916Z,13.1
2018-02-02T02:02:24.649Z,12.6
2018-02-02T02:03:24.465Z,12.7
2018-02-02T02:04:24.436Z,13.1
2018-02-02T02:05:24.266Z,13.1
2018-02-02T02:06:24.399Z,13.1
2018-02-02T02:07:24.199Z,12.6
2018-02-02T02:08:24.179Z,12.7
2018-02-02T02:09:24.218Z,13.2
2018-02-02T02:10:23.932Z,13
2018-02-02T02:11:23.831Z,12.7
2018-02-02T02:12:23.870Z,12.9
2018-02-02T02:13:23.801Z,13
2018-02-02T02:14:23.604Z,13.1
2018-02-02T02:15:23.988Z,13
2018-02-02T02:16:23.499Z,12.7
2018-02-02T02:17:23.414Z,13
2018-02-02T02:18:23.441Z,12.9
2018-02-02T02:19:23.623Z,13.1
2018-02-02T02:20:23.250Z,12.8
2018-02-02T02:21:23.460Z,13.1
2018-02-02T02:22:22.943Z,12.5
2018-02-02T02:23:22.953Z,13.1
2018-02-02T02:24:22.950Z,12.6
2018-02-02T02:25:22.874Z,12.6
2018-02-02T02:26:22.692Z,13.1
2018-02-02T02:27:22.733Z,13.1
2018-02-02T02:28:22.724Z,12.9
2018-02-02T02:29:22.491Z,13
2018-02-02T02:30:22.530Z,12.7
2018-02-02T02:31:22.358Z,12.7
2018-02-02T02:32:22.393Z,12.7
2018-02-02T02:33:22.263Z,12.8
2018-02-02T02:34:22.445Z,12.6
2018-02-02T02:35:22.216Z,12.6
2018-02-02T02:36:22.382Z,12.9
2018-02-02T02:37:22.048Z,12.8
2018-02-02T02:38:22.008Z,12.6
2018-02-02T02:39:21.969Z,13
2018-02-02T02:40:21.738Z,12.8
2018-02-02T02:41:21.960Z,12.7
2018-02-02T02:42:21.713Z,12.6
2018-02-02T02:43:21.883Z,12.5
2018-02-02T02:44:21.793Z,13
2018-02-02T02:45:21.552Z,12.9
2018-02-02T02:46:21.275Z,13.2
2018-02-02T02:47:21.315Z,12.5
2018-02-02T02:48:21.291Z,13
2018-02-02T02:49:21.110Z,12.6
2018-02-02T02:50:21.169Z,12.9
2018-02-02T02:51:20.959Z,12.4
2018-02-02T02:52:21.193Z,13.2
2018-02-02T02:53:20.948Z,12.6
2018-02-02T02:54:21.045Z,12.5
2018-02-02T02:55:20.654Z,13
2018-02-02T02:56:20.966Z,12.7
2018-02-02T02:57:20.521Z,12.7
2018-02-02T02:58:20.494Z,12.5
2018-02-02T02:59:20.767Z,13
2018-02-02T03:00:20.514Z,13.1
2018-02-02T03:01:20.289Z,13
2018-02-02T03:02:20.212Z,13.2
2018-02-02T03:03:20.257Z,12.8
2018-02-02T03:04:20.182Z,12.8
2018-02-02T03:05:20.056Z,13.1
2018-02-02T03:06:20.088Z,12.8
2018-02-02T03:07:20.082Z,12.8
2018-02-02T03:08:19.938Z,12.5
2018-02-02T03:09:20.067Z,12.4
2018-02-02T03:10:19.623Z,12.7
2018-02-02T03:11:19.757Z,12.7
2018-02-02T03:12:19.636Z,12.9
2018-02-02T03:13:19.561Z,12.8
2018-02-02T03:14:19.677Z,12.9
2018-02-02T03:15:19.572Z,12.6
2018-02-02T03:16:19.932Z,13.1
2018-02-02T03:17:19.344Z,13
2018-02-02T03:18:19.067Z,12.8
2018-02-02T03:19:19.152Z,12.4
2018-02-02T03:20:19.085Z,12.7
2018-02-02T03:21:18.955Z,12.8
2018-02-02T03:22:18.812Z,12.9
2018-02-02T03:23:18.767Z,12.5
2018-02-02T03:24:18.802Z,13.1
2018-02-02T03:25:18.918Z,12.9
2018-02-02T03:26:18.608Z,13.2
2018-02-02T03:27:18.676Z,12.5
2018-02-02T03:28:18.750Z,12.9
2018-02-02T03:29:18.314Z,13
2018-02-02T03:30:18.291Z,12.5
2018-02-02T03:31:18.212Z,12.9
2018-02-02T03:32:18.305Z,12.8
2018-02-02T03:33:18.127Z,13.1
2018-02-02T03:34:17.966Z,12.6
2018-02-02T03:35:17.947Z,12.8
2018-02-02T03:36:18.161Z,12.9
2018-02-02T03:37:17.848Z,13.1
2018-02-02T03:38:17.904Z,12.7
2018-02-02T03:39:17.737Z,13.1
2018-02-02T03:40:17.593Z,12.6
2018-02-02T03:41:17.938Z,13.1
2018-02-02T03:42:17.621Z,12.9
2018-02-02T03:43:17.386Z,12.9
2018-02-02T03:44:17.282Z,13.2
2018-02-02T03:45:17.422Z,13
2018-02-02T03:46:17.454Z,13.1
2018-02-02T03:47:17.532Z,13.2
2018-02-02T03:48:17.041Z,13.1
2018-02-02T03:49:17.020Z,12.6
2018-02-02T03:50:17.066Z,12.9
2018-02-02T03:51:17.059Z,12.5
2018-02-02T03:52:16.870Z,12.9
2018-02-02T03:53:16.698Z,13.1
2018-02-02T03:54:16.911Z,12.9
2018-02-02T03:55:16.671Z,12.6
2018-02-02T03:56:16.812Z,13
2018-02-02T03:57:16.427Z,13.2
2018-02-02T03:58:16.406Z,12.6
2018-02-02T03:59:16.240Z,12.8
2018-02-02T04:00:16.376Z,13.1
2018-02-02T04:01:16.105Z,12.7
2018-02-02T04:02:16.287Z,13.1
2018-02-02T04:03:16.150Z,12.9
2018-02-02T04:04:16.075Z,13.1
2018-02-02T04:05:15.980Z,12.4
2018-02-02T04:06:15.912Z,12.9
2018-02-02T04:07:15.728Z,12.9
2018-02-02T04:08:15.772Z,13
2018-02-02T04:09:15.643Z,12.6
2018-02-02T04:10:15.571Z,13.1
2018-02-02T04:11:15.475Z,13.1
2018-02-02T04:12:15.500Z,13
2018-02-02T04:13:15.314Z,13.1
2018-02-02T04:14:15.247Z,13.1
2018-02-02T04:15:15.181Z,13.1
2018-02-02T04:16:15.066Z,12.8
2018-02-02T04:17:15.087Z,12.7
2018-02-02T04:18:14.973Z,13.1
2018-02-02T04:19:14.979Z,13.1
2018-02-02T04:20:14.930Z,13.2
2018-02-02T04:21:14.810Z,13.1
2018-02-02T04:22:14.744Z,12.6
2018-02-02T04:23:14.738Z,12.7
2018-02-02T04:24:14.555Z,12.7
2018-02-02T04:25:14.602Z,13.2
2018-02-02T04:26:14.505Z,12.7
2018-02-02T04:27:14.460Z,13
2018-02-02T04:28:14.378Z,12.6
2018-02-02T04:29:14.493Z,12.6
2018-02-02T04:30:14.255Z,12.9
2018-02-02T04:31:14.184Z,12.8
2018-02-02T04:32:13.965Z,13.1
2018-02-02T04:33:14.104Z,12.4
2018-02-02T04:34:13.975Z,13.1
2018-02-02T04:35:14.018Z,13.1
2018-02-02T04:36:13.941Z,12.6
2018-02-02T04:37:13.711Z,12.6
2018-02-02T04:38:13.688Z,12.8
2018-02-02T04:39:13.685Z,13
2018-02-02T04:40:13.498Z,13
2018-02-02T04:41:13.687Z,12.8
2018-02-02T04:42:13.422Z,12.6
2018-02-02T04:43:13.247Z,12.6
2018-02-02T04:44:13.341Z,13
2018-02-02T04:45:13.071Z,12.8
2018-02-02T04:46:13.039Z,12.8
2018-02-02T04:47:12.971Z,12.9
2018-02-02T04:48:13.064Z,13
2018-02-02T04:49:13.089Z,12.9
2018-02-02T04:50:13.065Z,12.9
2018-02-02T04:51:12.981Z,12.7
2018-02-02T04:52:12.735Z,13.1
2018-02-02T04:53:12.600Z,12.7
2018-02-02T04:54:12.587Z,13
2018-02-02T04:55:12.530Z,12.6
2018-02-02T04:56:12.348Z,12.6
2018-02-02T04:57:12.390Z,13
2018-02-02T04:58:12.301Z,12.7
2018-02-02T04:59:12.252Z,13
2018-02-02T05:00:12.182Z,12.9
2018-02-02T05:01:12.004Z,13
2018-02-02T05:02:11.989Z,12.8
2018-02-02T05:03:12.026Z,12.6
2018-02-02T05:04:11.751Z,13.1
2018-02-02T05:05:12.005Z,13.1
2018-02-02T05:06:11.661Z,13.1
2018-02-02T05:07:11.996Z,12.7
2018-02-02T05:08:11.629Z,13
2018-02-02T05:09:11.915Z,13
2018-02-02T05:10:11.479Z,13.1
2018-02-02T05:11:11.475Z,12.6
2018-02-02T05:12:11.200Z,12.7
2018-02-02T05:13:11.169Z,12.7
2018-02-02T05:14:11.283Z,13.1
2018-02-02T05:15:11.021Z,13.2
2018-02-02T05:16:11.178Z,12.6
2018-02-02T05:17:11.204Z,12.6
2018-02-02T05:18:10.933Z,12.6
2018-02-02T05:19:10.985Z,12.6
2018-02-02T05:20:11.155Z,13
2018-02-02T05:21:10.675Z,13.1
2018-02-02T05:22:10.971Z,12.6
2018-02-02T05:23:10.579Z,13
2018-02-02T05:24:10.529Z,13.1
2018-02-02T05:25:10.343Z,13.2
2018-02-02T05:26:10.281Z,13.1
2018-02-02T05:27:10.371Z,13.1
2018-02-02T05:28:10.276Z,12.9
2018-02-02T05:29:10.173Z,13
2018-02-02T05:30:10.071Z,13.1
2018-02-02T05:31:10.123Z,12.6
2018-02-02T05:32:09.910Z,12.5
2018-02-02T05:33:09.839Z,12.7
2018-02-02T05:34:09.828Z,12.6
2018-02-02T05:35:09.658Z,13
2018-02-02T05:36:09.697Z,13.1
2018-02-02T05:37:09.519Z,12.6
2018-02-02T05:38:09.440Z,13
2018-02-02T05:39:09.363Z,13
2018-02-02T05:40:09.474Z,12.9
2018-02-02T05:41:09.459Z,13.2
2018-02-02T05:42:09.171Z,12.4
2018-02-02T05:43:09.150Z,13.2
2018-02-02T05:44:09.086Z,13.2
2018-02-02T05:45:08.969Z,13.1
2018-02-02T05:46:08.900Z,13.1
2018-02-02T05:47:09.041Z,13.1
2018-02-02T05:48:08.896Z,12.8
2018-02-02T05:49:08.850Z,13.1
2018-02-02T05:50:08.627Z,13
2018-02-02T05:51:08.549Z,13.1
2018-02-02T05:52:08.621Z,13.2
2018-02-02T05:53:08.694Z,13
2018-02-02T05:54:08.339Z,13.1
2018-02-02T05:55:08.405Z,12.7
2018-02-02T05:56:08.492Z,12.8
2018-02-02T05:57:08.096Z,12.8
2018-02-02T05:58:08.120Z,13
2018-02-02T05:59:08.112Z,12.5
2018-02-02T06:00:08.037Z,13
2018-02-02T06:01:07.869Z,13
2018-02-02T06:02:07.774Z,12.9
2018-02-02T06:03:07.863Z,12.7
2018-02-02T06:04:07.822Z,13.1
2018-02-02T06:05:07.546Z,13
2018-02-02T06:06:07.624Z,12.7
2018-02-02T06:07:07.564Z,13
2018-02-02T06:08:07.596Z,12.6
2018-02-02T06:09:07.431Z,12.6
2018-02-02T06:10:07.256Z,13
2018-02-02T06:11:07.160Z,13
2018-02-02T06:12:07.109Z,13.1
2018-02-02T06:13:07.203Z,12.9
2018-02-02T06:14:07.018Z,13.2
2018-02-02T06:15:06.950Z,13.1
2018-02-02T06:16:07.164Z,13
2018-02-02T06:17:07.050Z,12.9
2018-02-02T06:18:06.809Z,12.7
2018-02-02T06:19:06.633Z,12.7
2018-02-02T06:20:06.893Z,13.1
2018-02-02T06:21:06.443Z,13
2018-02-02T06:22:06.467Z,13.2
2018-02-02T06:23:06.308Z,12.5
2018-02-02T06:24:06.278Z,13.1
2018-02-02T06:25:06.324Z,13.1
2018-02-02T06:26:06.155Z,12.8
2018-02-02T06:27:06.167Z,13.2
2018-02-02T06:28:06.012Z,13
2018-02-02T06:29:06.040Z,12.5
2018-02-02T06:30:05.871Z,12.7
2018-02-02T06:31:05.964Z,13.1
2018-02-02T06:32:05.690Z,13.2
2018-02-02T06:33:05.797Z,12.6
2018-02-02T06:34:05.738Z,13
2018-02-02T06:35:05.626Z,13
2018-02-02T06:36:05.456Z,12.6
2018-02-02T06:37:05.378Z,13
2018-02-02T06:38:05.272Z,12.7
2018-02-02T06:39:05.296Z,12.9
2018-02-02T06:40:05.182Z,13.1
2018-02-02T06:41:05.412Z,13.1
2018-02-02T06:42:05.034Z,12.9
2018-02-02T06:43:04.956Z,12.9
2018-02-02T06:44:05.063Z,13.2
2018-02-02T06:45:04.943Z,13.2
2018-02-02T06:46:04.867Z,12.7
2018-02-02T06:47:04.908Z,13
2018-02-02T06:48:04.880Z,12.9
2018-02-02T06:49:04.559Z,13.1
2018-02-02T06:50:04.483Z,13.1
2018-02-02T06:51:04.423Z,12.9
2018-02-02T06:52:04.510Z,12.7
2018-02-02T06:53:04.237Z,13.1
2018-02-02T06:54:04.211Z,13.2
2018-02-02T06:55:04.143Z,12.9
2018-02-02T06:56:04.121Z,12.6
2018-02-02T06:57:03.958Z,13
2018-02-02T06:58:04.065Z,13
2018-02-02T06:59:03.943Z,12.6
2018-02-02T07:00:03.904Z,12.6
2018-02-02T07:01:04.018Z,13.1
2018-02-02T07:02:03.654Z,13.2
2018-02-02T07:03:03.636Z,12.6
2018-02-02T07:04:03.567Z,12.5
2018-02-02T07:05:03.586Z,12.7
2018-02-02T07:06:03.410Z,12.9
2018-02-02T07:07:03.605Z,12.9
2018-02-02T07:08:03.205Z,12.7
2018-02-02T07:09:03.627Z,12.7
2018-02-02T07:10:03.108Z,12.7
2018-02-02T07:11:03.037Z,13
2018-02-02T07:12:03.260Z,13.1
2018-02-02T07:13:02.898Z,12.8
2018-02-02T07:14:02.910Z,12.7
2018-02-02T07:15:02.860Z,13.2
2018-02-02T07:16:03.029Z,12.6
2018-02-02T07:17:02.628Z,13.2
2018-02-02T07:18:02.680Z,12.8
2018-02-02T07:19:02.598Z,13.1
2018-02-02T07:20:02.803Z,12.7
2018-02-02T07:21:02.308Z,13.4
2018-02-02T07:22:02.428Z,13.1
2018-02-02T07:23:02.317Z,13.3
2018-02-02T07:24:02.276Z,13.2
2018-02-02T07:25:02.120Z,12.9
2018-02-02T07:26:02.191Z,13.2
2018-02-02T07:27:02.093Z,13.3
2018-02-02T07:28:01.865Z,13
2018-02-02T07:29:01.789Z,13.4
2018-02-02T07:30:02.314Z,13.5
2018-02-02T07:31:01.804Z,13.6
2018-02-02T07:32:01.545Z,13
2018-02-02T07:33:01.566Z,13.1
2018-02-02T07:34:01.500Z,13.1
2018-02-02T07:35:01.486Z,13.1
2018-02-02T07:36:01.312Z,12.9
2018-02-02T07:37:01.577Z,13.5
2018-02-02T07:38:01.236Z,13.5
2018-02-02T07:39:01.212Z,13.7
2018-02-02T07:40:01.034Z,13.6
2018-02-02T07:41:00.968Z,13.5
2018-02-02T07:42:01.234Z,13.2
2018-02-02T07:43:00.783Z,13.2
2018-02-02T07:44:00.758Z,13.5
2018-02-02T07:45:00.685Z,13.3
2018-02-02T07:46:00.791Z,13.7
2018-02-02T07:47:00.621Z,13.7
2018-02-02T07:48:00.527Z,13.3
2018-02-02T07:49:00.764Z,13.5
2018-02-02T07:50:00.340Z,13.5
2018-02-02T07:51:00.318Z,13.7
2018-02-02T07:52:00.543Z,13.1
2018-02-02T07:53:00.547Z,13.7
2018-02-02T07:54:00.350Z,13.2
2018-02-02T07:54:59.995Z,13.5
2018-02-02T07:56:00.253Z,13.2
2018-02-02T07:56:59.907Z,13.5
2018-02-02T07:58:00.069Z,13
2018-02-02T07:58:59.681Z,13.5
2018-02-02T07:59:59.648Z,13.8
2018-02-02T08:00:59.694Z,13.4
2018-02-02T08:01:59.726Z,13.3
2018-02-02T08:02:59.478Z,13.5
2018-02-02T08:03:59.328Z,13.4
2018-02-02T08:04:59.301Z,13.6
2018-02-02T08:05:59.831Z,13.8
2018-02-02T08:06:59.620Z,13.7
2018-02-02T08:07:59.141Z,13.5
2018-02-02T08:08:59.076Z,13.7
2018-02-02T08:09:59.031Z,14.6
2018-02-02T08:10:59.002Z,14
2018-02-02T08:11:58.931Z,13.7
2018-02-02T08:12:58.861Z,13.5
2018-02-02T08:13:58.730Z,13.9
2018-02-02T08:14:58.570Z,13.4
2018-02-02T08:15:58.594Z,13.2
2018-02-02T08:16:58.433Z,13.8
2018-02-02T08:17:58.801Z,14
2018-02-02T08:18:58.489Z,13.8
2018-02-02T08:19:58.226Z,14
2018-02-02T08:20:58.197Z,14.3
2018-02-02T08:21:58.134Z,14.4
2018-02-02T08:22:58.165Z,13.8
2018-02-02T08:23:57.997Z,13.4
2018-02-02T08:24:58.124Z,13.9
2018-02-02T08:25:57.901Z,14.2
2018-02-02T08:26:57.806Z,14
2018-02-02T08:27:58.005Z,13.8
2018-02-02T08:28:57.648Z,14.5
2018-02-02T08:29:57.582Z,14.6
2018-02-02T08:30:57.613Z,14.6
2018-02-02T08:31:57.447Z,13.8
2018-02-02T08:32:57.417Z,14
2018-02-02T08:33:57.305Z,14.2
2018-02-02T08:34:57.362Z,14.2
2018-02-02T08:35:57.213Z,13.8
2018-02-02T08:36:57.141Z,14.4
2018-02-02T08:37:57.303Z,14.7
2018-02-02T08:38:57.067Z,14.7
2018-02-02T08:39:56.992Z,14.4
2018-02-02T08:40:56.866Z,14.4
2018-02-02T08:41:57.033Z,14.4
2018-02-02T08:42:56.968Z,14.3
2018-02-02T08:43:56.607Z,14.2
2018-02-02T08:44:56.849Z,14
2018-02-02T08:45:56.636Z,14.6
2018-02-02T08:46:56.643Z,14.2
2018-02-02T08:47:56.442Z,14.3
2018-02-02T08:48:56.516Z,14
2018-02-02T08:49:56.446Z,14.4
2018-02-02T08:50:56.238Z,14.4
2018-02-02T08:51:56.297Z,14.6
2018-02-02T08:52:55.989Z,14
2018-02-02T08:53:55.922Z,13.8
2018-02-02T08:54:55.855Z,14.4
2018-02-02T08:55:56.068Z,14.3
2018-02-02T08:56:55.669Z,14.3
2018-02-02T08:57:55.943Z,14.3
2018-02-02T08:58:55.709Z,14.5
2018-02-02T08:59:55.777Z,14.4
2018-02-02T09:00:55.545Z,14.2
2018-02-02T09:01:55.328Z,14.6
2018-02-02T09:02:55.460Z,14.7
2018-02-02T09:03:55.339Z,13.8
2018-02-02T09:04:55.372Z,14.6
2018-02-02T09:05:55.092Z,14.5
2018-02-02T09:06:55.080Z,14.2
2018-02-02T09:07:54.998Z,14.7
2018-02-02T09:08:54.929Z,14.7
2018-02-02T09:09:54.980Z,14
2018-02-02T09:10:54.909Z,14.5
2018-02-02T09:11:54.778Z,14.1
2018-02-02T09:12:54.828Z,14.7
2018-02-02T09:13:54.625Z,13.9
2018-02-02T09:14:54.490Z,14
2018-02-02T09:15:54.508Z,14.5
2018-02-02T09:16:54.440Z,14.7
2018-02-02T09:17:54.308Z,14.5
2018-02-02T09:18:54.356Z,14.2
2018-02-02T09:19:54.171Z,14
2018-02-02T09:20:54.335Z,14.2
2018-02-02T09:21:53.988Z,14.3
2018-02-02T09:22:54.021Z,14.3
2018-02-02T09:23:54.142Z,14
2018-02-02T09:24:54.231Z,14.3
2018-02-02T09:25:53.759Z,14.7
2018-02-02T09:26:54.090Z,14.1
2018-02-02T09:27:53.536Z,14.1
2018-02-02T09:28:53.608Z,14.2
2018-02-02T09:29:53.459Z,14
2018-02-02T09:30:53.431Z,14.6
2018-02-02T09:31:53.582Z,14.6
2018-02-02T09:32:53.229Z,14
2018-02-02T09:33:53.154Z,14.6
2018-02-02T09:34:53.200Z,14.3
2018-02-02T09:35:53.180Z,14.2
2018-02-02T09:36:52.906Z,14.4
2018-02-02T09:37:52.891Z,14.2
2018-02-02T09:38:52.802Z,14.3
2018-02-02T09:39:53.044Z,14.1
2018-02-02T09:40:52.672Z,14.3
2018-02-02T09:41:53.000Z,14.7
2018-02-02T09:42:52.588Z,14.2
2018-02-02T09:43:52.424Z,14.5
2018-02-02T09:44:52.554Z,14.2
2018-02-02T09:45:52.461Z,14.3
2018-02-02T09:46:52.633Z,13.9
2018-02-02T09:47:52.239Z,14.5
2018-02-02T09:48:52.255Z,14.5
2018-02-02T09:49:52.202Z,14
2018-02-02T09:50:52.090Z,14.1
2018-02-02T09:51:52.019Z,14.6
2018-02-02T09:52:51.955Z,14.7
2018-02-02T09:53:51.857Z,14
2018-02-02T09:54:51.781Z,14.6
2018-02-02T09:55:51.797Z,14.5
2018-02-02T09:56:51.680Z,14.7
2018-02-02T09:57:51.602Z,14.3
2018-02-02T09:58:51.566Z,14
2018-02-02T09:59:51.406Z,14.4
2018-02-02T10:00:51.400Z,14
2018-02-02T10:01:51.330Z,14.1
2018-02-02T10:02:51.159Z,14
2018-02-02T10:03:51.128Z,14.4
2018-02-02T10:04:51.177Z,14.8
2018-02-02T10:05:50.990Z,14.5
2018-02-02T10:06:50.924Z,14.7
2018-02-02T10:07:50.922Z,14
2018-02-02T10:08:50.735Z,14.4
2018-02-02T10:09:50.778Z,14.3
2018-02-02T10:10:50.653Z,14.2
2018-02-02T10:11:50.577Z,14.3
2018-02-02T10:12:50.568Z,13.9
2018-02-02T10:13:50.602Z,14.4
2018-02-02T10:14:50.462Z,14.7
2018-02-02T10:15:50.590Z,14.4
2018-02-02T10:16:50.319Z,14.1
2018-02-02T10:17:50.147Z,14.3
2018-02-02T10:18:50.445Z,14.4
2018-02-02T10:19:49.978Z,14.2
2018-02-02T10:20:49.908Z,14.3
2018-02-02T10:21:49.886Z,14.4
2018-02-02T10:22:49.806Z,14.4
2018-02-02T10:23:49.869Z,14.7
2018-02-02T10:24:49.678Z,14.4
2018-02-02T10:25:49.778Z,14.7
2018-02-02T10:26:49.748Z,14.3
2018-02-02T10:27:49.473Z,14.6
2018-02-02T10:28:49.462Z,14.4
2018-02-02T10:29:49.398Z,14
2018-02-02T10:30:49.320Z,14.6
2018-02-02T10:31:49.454Z,14.4
2018-02-02T10:32:49.124Z,14.1
2018-02-02T10:33:48.985Z,14.7
2018-02-02T10:34:48.936Z,14.4
2018-02-02T10:35:48.876Z,14.7
2018-02-02T10:36:48.964Z,14.3
2018-02-02T10:37:48.778Z,14.5
2018-02-02T10:38:48.826Z,14.3
2018-02-02T10:39:48.706Z,14
2018-02-02T10:40:48.520Z,14.5
2018-02-02T10:41:48.449Z,14.1
2018-02-02T10:42:48.521Z,14.7
2018-02-02T10:43:48.422Z,14.1
2018-02-02T10:44:48.357Z,14.2
2018-02-02T10:45:48.287Z,14.3
2018-02-02T10:46:48.159Z,14.4
2018-02-02T10:47:48.204Z,14.1
2018-02-02T10:48:48.134Z,14.3
2018-02-02T10:49:48.157Z,14.2
2018-02-02T10:50:47.835Z,14.5
2018-02-02T10:51:47.767Z,14.4
2018-02-02T10:52:47.700Z,14.4
2018-02-02T10:53:47.793Z,14.1
2018-02-02T10:54:47.826Z,14
2018-02-02T10:55:47.593Z,14.2
2018-02-02T10:56:47.535Z,14.4
2018-02-02T10:57:47.651Z,14
2018-02-02T10:58:47.418Z,14.1
2018-02-02T10:59:47.169Z,14.4
2018-02-02T11:00:47.353Z,13.9
2018-02-02T11:01:47.080Z,14
2018-02-02T11:02:47.001Z,13.8
2018-02-02T11:03:47.047Z,14.2
2018-02-02T11:04:47.029Z,14.1
2018-02-02T11:05:46.794Z,14.5
2018-02-02T11:06:46.920Z,14.4
2018-02-02T11:07:46.660Z,14.6
2018-02-02T11:08:46.857Z,14
2018-02-02T11:09:46.689Z,14
2018-02-02T11:10:46.456Z,14
2018-02-02T11:11:46.595Z,14.4
2018-02-02T11:12:46.319Z,14.3
2018-02-02T11:13:46.350Z,14.5
2018-02-02T11:14:46.612Z,14.5
2018-02-02T11:15:46.155Z,14.7
2018-02-02T11:17:18.193Z,13.9
2018-02-02T11:17:46.128Z,14.3
2018-02-02T11:18:45.886Z,14
2018-02-02T11:19:45.799Z,14
2018-02-02T11:20:45.836Z,14.2
2018-02-02T11:21:45.732Z,14.4
2018-02-02T11:22:45.588Z,14.6
2018-02-02T11:23:45.607Z,14.4
2018-02-02T11:24:45.519Z,14
2018-02-02T11:25:45.381Z,14.6
2018-02-02T11:26:45.308Z,14.5
2018-02-02T11:27:45.134Z,14
2018-02-02T11:28:45.267Z,14.3
2018-02-02T11:29:45.128Z,14.1
2018-02-02T11:30:45.194Z,14.2
2018-02-02T11:31:44.913Z,14.1
2018-02-02T11:32:44.783Z,14.6
2018-02-02T11:33:45.001Z,14.7
2018-02-02T11:34:44.675Z,14.1
2018-02-02T11:35:44.661Z,14.6
2018-02-02T11:36:44.935Z,14.3
2018-02-02T11:37:44.652Z,14.7
2018-02-02T11:38:44.316Z,14.4
2018-02-02T11:39:44.290Z,14.4
2018-02-02T11:40:44.205Z,14
2018-02-02T11:41:44.535Z,14.1
2018-02-02T11:42:43.958Z,14.3
2018-02-02T11:43:43.922Z,14
2018-02-02T11:44:44.056Z,14.2
2018-02-02T11:45:44.178Z,14.1
2018-02-02T11:46:43.950Z,14.5
2018-02-02T11:47:44.055Z,14.4
2018-02-02T11:48:43.578Z,14.4
2018-02-02T11:49:43.728Z,14.4
2018-02-02T11:50:43.481Z,14.7
2018-02-02T11:51:43.295Z,14.7
2018-02-02T11:52:43.173Z,14.7
2018-02-02T11:53:43.170Z,14.5
2018-02-02T11:54:43.278Z,14
2018-02-02T11:55:43.201Z,14.1
2018-02-02T11:56:43.111Z,14.4
2018-02-02T11:57:43.057Z,14.3
2018-02-02T11:58:42.793Z,14.7
2018-02-02T11:59:42.624Z,14.1
2018-02-02T12:00:42.873Z,14.2
2018-02-02T12:01:42.725Z,13.8
2018-02-02T12:02:42.541Z,14.5
2018-02-02T12:03:42.565Z,14.2
2018-02-02T12:04:42.322Z,14.1
2018-02-02T12:05:42.245Z,14.7
2018-02-02T12:06:42.117Z,14.5
2018-02-02T12:07:42.037Z,14.5
2018-02-02T12:08:41.917Z,14.3
2018-02-02T12:09:41.894Z,14.6
2018-02-02T12:10:41.824Z,14.4
2018-02-02T12:11:41.729Z,14.3
2018-02-02T12:12:41.755Z,14.4
2018-02-02T12:13:41.573Z,14.2
2018-02-02T12:14:41.498Z,14.2
2018-02-02T12:15:41.576Z,14.1
2018-02-02T12:16:41.385Z,14.1
2018-02-02T12:17:41.554Z,14.5
2018-02-02T12:18:41.447Z,14.4
2018-02-02T12:19:41.316Z,14
2018-02-02T12:20:41.233Z,14.4
2018-02-02T12:21:40.987Z,14.2
2018-02-02T12:22:41.148Z,13.8
2018-02-02T12:23:40.787Z,14.4
2018-02-02T12:24:40.808Z,14.4
2018-02-02T12:25:40.750Z,14.7
2018-02-02T12:26:40.634Z,13.8
2018-02-02T12:27:40.493Z,14.4
2018-02-02T12:28:40.496Z,14.7
2018-02-02T12:29:40.361Z,14.7
2018-02-02T12:30:40.516Z,14.7
2018-02-02T12:31:40.208Z,14
2018-02-02T12:32:40.392Z,14.4
2018-02-02T12:33:40.004Z,14.6
2018-02-02T12:34:39.899Z,14.6
2018-02-02T12:35:40.122Z,14.7
2018-02-02T12:36:39.768Z,14.4
2018-02-02T12:37:39.684Z,14.1
2018-02-02T12:38:39.828Z,14.4
2018-02-02T12:39:39.528Z,14.4
2018-02-02T12:40:39.498Z,14.2
2018-02-02T12:41:39.838Z,14.4
2018-02-02T12:42:39.279Z,14.2
2018-02-02T12:43:39.327Z,13.9
2018-02-02T12:44:39.250Z,14.3
2018-02-02T12:45:39.271Z,14.1
2018-02-02T12:46:38.985Z,14.2
2018-02-02T12:47:39.410Z,14.6
2018-02-02T12:48:38.781Z,14.4
2018-02-02T12:49:38.855Z,14.5
2018-02-02T12:50:38.700Z,14.1
2018-02-02T12:51:38.551Z,14.4
2018-02-02T12:52:38.788Z,14.5
2018-02-02T12:53:38.477Z,14.1
2018-02-02T12:54:38.350Z,14.3
2018-02-02T12:55:38.385Z,14.5
2018-02-02T12:56:38.409Z,14.3
2018-02-02T12:57:38.531Z,14.2
2018-02-02T12:58:38.122Z,14.5
2018-02-02T12:59:38.125Z,14.2
2018-02-02T13:00:38.022Z,13.6
2018-02-02T13:01:38.087Z,14.6
2018-02-02T13:02:37.732Z,14.5
2018-02-02T13:03:37.695Z,14.5
2018-02-02T13:04:37.708Z,14.4
2018-02-02T13:05:37.595Z,14.4
2018-02-02T13:06:37.413Z,14.5
2018-02-02T13:07:37.442Z,14.2
2018-02-02T13:08:37.534Z,14.7
2018-02-02T13:09:37.223Z,14.4
2018-02-02T13:10:37.061Z,14.7
2018-02-02T13:11:37.077Z,14
2018-02-02T13:12:36.949Z,14.1
2018-02-02T13:13:37.076Z,14.4
2018-02-02T13:14:36.894Z,14
2018-02-02T13:15:36.662Z,14.5
2018-02-02T13:16:36.791Z,14.1
2018-02-02T13:17:36.664Z,14.3
2018-02-02T13:18:36.576Z,14.2
2018-02-02T13:19:36.442Z,14
2018-02-02T13:20:36.593Z,14
2018-02-02T13:21:36.320Z,14
2018-02-02T13:22:36.177Z,13.8
2018-02-02T13:23:36.363Z,14
2018-02-02T13:24:36.050Z,14.6
2018-02-02T13:25:36.093Z,14.4